Time;durP1;ratioP1;P1;durP2;ratioP2;P2;SDS_P1;SDS_P2;PMS_P1;PMS_P2;Temp;Humidity;BMP_temperature;BMP_pressure;BME280_temperature;BME280_humidity;BME280_pressure;Samples;Min_cycle;Max_cycle;Signal;HPM_P1;HPM_P2
2022/11/30 00:01:17;;;;;;;;;20.50;17.25;;;;;9.01;82.99;102301.25;5091867;28;10489;-66
2022/11/30 00:03:44;;;;;;;;;15.00;14.00;;;;;9.01;82.55;102303.94;5087674;28;10476;-65
2022/11/30 00:06:16;;;;;;;;;16.25;15.50;;;;;9.03;83.00;102305.44;5088207;28;10571;-66
2022/11/30 00:08:42;;;;;;;;;14.00;12.25;;;;;9.05;82.83;102308.00;5089584;28;10529;-65
2022/11/30 00:11:14;;;;;;;;;16.00;16.00;;;;;9.05;82.85;102302.63;5090444;28;10501;-65
2022/11/30 00:13:40;;;;;;;;;15.00;12.50;;;;;9.05;82.86;102308.00;5090189;28;10593;-64
2022/11/30 00:16:08;;;;;;;;;13.00;10.75;;;;;9.06;82.69;102304.31;5098936;28;10645;-66
2022/11/30 00:18:35;;;;;;;;;14.75;13.50;;;;;9.07;83.00;102303.31;5089300;28;10588;-66
2022/11/30 00:21:05;;;;;;;;;17.75;14.00;;;;;9.10;82.63;102305.72;5081316;28;10728;-66
2022/11/30 00:23:36;;;;;;;;;11.50;10.50;;;;;9.09;82.80;102302.19;5089078;28;10370;-67
2022/11/30 00:26:05;;;;;;;;;17.75;16.25;;;;;9.07;82.80;102301.47;5089704;28;10429;-65
2022/11/30 00:28:33;;;;;;;;;13.25;13.25;;;;;9.10;82.53;102303.88;5087488;28;10477;-67
2022/11/30 00:31:06;;;;;;;;;16.00;10.00;;;;;9.10;82.87;102303.88;5089889;28;10621;-66
2022/11/30 00:33:35;;;;;;;;;15.75;13.00;;;;;9.09;82.47;102306.72;5089087;28;10502;-64
2022/11/30 00:36:08;;;;;;;;;19.00;14.75;;;;;9.09;82.44;102304.88;5089456;28;10605;-67
2022/11/30 00:38:34;;;;;;;;;15.00;14.00;;;;;9.10;82.70;102311.94;5091033;28;10381;-66
2022/11/30 00:41:02;;;;;;;;;18.75;15.50;;;;;9.10;83.16;102305.72;5090626;28;10532;-65
2022/11/30 00:43:28;;;;;;;;;18.00;13.50;;;;;9.09;83.05;102312.09;5090984;28;11368;-67
2022/11/30 00:45:55;;;;;;;;;16.50;11.00;;;;;9.08;83.00;102307.72;5089810;28;10476;-65
2022/11/30 00:48:22;;;;;;;;;14.00;11.00;;;;;9.08;82.58;102308.56;5089279;28;10985;-68
2022/11/30 00:50:49;;;;;;;;;17.25;15.00;;;;;9.08;82.73;102313.09;5090310;28;10518;-65
2022/11/30 00:53:17;;;;;;;;;14.25;12.00;;;;;9.09;82.70;102315.63;5090819;28;10387;-65
2022/11/30 00:55:44;;;;;;;;;18.25;14.50;;;;;9.10;82.71;102309.25;5090690;28;10427;-66
2022/11/30 00:58:11;;;;;;;;;16.25;16.00;;;;;9.11;82.77;102307.41;5088517;28;10561;-66
2022/11/30 01:00:39;;;;;;;;;17.00;12.75;;;;;9.10;82.82;102311.94;5087627;28;10684;-67
2022/11/30 01:03:05;;;;;;;;;16.75;13.00;;;;;9.10;82.62;102306.56;5089193;28;10531;-67
2022/11/30 01:05:33;;;;;;;;;18.75;15.75;;;;;9.09;82.93;102304.88;5090189;28;10512;-66
2022/11/30 01:08:01;;;;;;;;;18.00;15.50;;;;;9.11;83.23;102302.03;5088248;28;10486;-67
2022/11/30 01:10:28;;;;;;;;;22.00;16.50;;;;;9.11;83.05;102302.03;5089799;28;10674;-67
2022/11/30 01:12:54;;;;;;;;;19.75;14.75;;;;;9.12;82.80;102309.13;5090262;28;11159;-66
2022/11/30 01:15:21;;;;;;;;;19.00;17.00;;;;;9.11;83.17;102310.94;5088476;28;11410;-67
2022/11/30 01:17:47;;;;;;;;;16.00;14.50;;;;;9.12;82.64;102317.19;5089322;28;11185;-66
2022/11/30 01:20:13;;;;;;;;;15.50;13.00;;;;;9.12;83.11;102315.34;5089592;28;10447;-67
2022/11/30 01:22:40;;;;;;;;;12.00;11.75;;;;;9.15;82.62;102319.53;5087110;28;10647;-67
2022/11/30 01:25:07;;;;;;;;;14.25;12.25;;;;;9.13;82.85;102319.69;5088350;28;11103;-66
2022/11/30 01:27:33;;;;;;;;;16.00;16.00;;;;;9.14;82.58;102323.22;5090102;28;10415;-65
2022/11/30 01:29:59;;;;;;;;;14.75;13.75;;;;;9.15;82.83;102328.47;5088807;28;11171;-66
2022/11/30 01:32:26;;;;;;;;;14.25;13.50;;;;;9.14;82.75;102323.22;5088158;28;11220;-67
2022/11/30 01:34:53;;;;;;;;;22.00;21.50;;;;;9.10;82.50;102316.47;5089276;28;10294;-66
2022/11/30 01:37:19;;;;;;;;;18.25;16.25;;;;;9.07;82.47;102317.59;5082180;28;10578;-65
2022/11/30 01:39:46;;;;;;;;;20.00;17.75;;;;;9.07;82.78;102324.81;5086528;28;10416;-67
2022/11/30 01:42:15;;;;;;;;;15.75;14.75;;;;;9.05;82.58;102316.06;5088543;28;10382;-67
2022/11/30 01:44:51;;;;;;;;;14.00;13.50;;;;;9.07;82.83;102322.97;5085811;28;10449;-66
2022/11/30 01:47:24;;;;;;;;;15.25;11.25;;;;;9.08;83.00;102326.53;5073407;28;10296;-67
2022/11/30 01:50:00;;;;;;;;;20.00;15.25;;;;;9.09;82.89;102317.47;5088840;28;10443;-65
2022/11/30 01:52:33;;;;;;;;;12.25;12.25;;;;;9.08;82.83;102318.47;5088389;28;10340;-65
2022/11/30 01:55:13;;;;;;;;;19.25;16.50;;;;;9.07;83.03;102314.91;5089726;28;10389;-66
2022/11/30 01:57:50;;;;;;;;;15.50;12.75;;;;;9.09;82.90;102315.63;5090276;28;10355;-66
2022/11/30 02:00:17;;;;;;;;;15.00;14.50;;;;;9.11;82.96;102320.84;5088134;28;10307;-66
2022/11/30 02:03:10;;;;;;;;;20.00;16.75;;;;;9.12;82.82;102319.88;5089840;28;10298;-66
2022/11/30 02:05:38;;;;;;;;;17.00;16.50;;;;;9.10;82.36;102325.38;5090021;28;10426;-66
2022/11/30 02:08:07;;;;;;;;;11.75;10.25;;;;;9.10;82.67;102325.38;5089479;28;10402;-65
2022/11/30 02:10:37;;;;;;;;;18.50;15.75;;;;;9.09;82.55;102326.38;5089455;28;10376;-66
2022/11/30 02:13:33;;;;;;;;;13.00;11.75;;;;;9.10;82.30;102322.69;5088956;28;10398;-66
2022/11/30 02:16:25;;;;;;;;;15.25;14.50;;;;;9.10;82.93;102319.16;5089448;28;10352;-66
2022/11/30 02:19:23;;;;;;;;;19.25;18.25;;;;;9.09;82.68;102318.31;5087981;28;10403;-65
2022/11/30 02:22:05;;;;;;;;;13.00;12.00;;;;;9.09;82.79;102321.00;5091604;28;10645;-66
2022/11/30 02:24:52;;;;;;;;;15.00;13.25;;;;;9.09;82.87;102317.47;5092794;28;10461;-66
2022/11/30 02:27:49;;;;;;;;;16.00;15.00;;;;;9.07;82.75;102314.91;5092526;28;10529;-66
2022/11/30 02:30:19;;;;;;;;;19.50;18.75;;;;;9.07;82.87;102319.44;5090498;28;10516;-67
2022/11/30 02:32:51;;;;;;;;;14.50;13.25;;;;;9.05;82.75;102316.06;5091897;28;11365;-67
2022/11/30 02:35:23;;;;;;;;;19.75;17.00;;;;;9.05;82.43;102321.44;5092536;28;10387;-67
2022/11/30 02:37:53;;;;;;;;;14.25;11.50;;;;;9.07;83.27;102322.13;5091977;28;10527;-67
2022/11/30 02:40:21;;;;;;;;;14.00;12.00;;;;;9.07;82.64;102325.66;5090790;28;10586;-66
2022/11/30 02:42:50;;;;;;;;;15.25;10.00;;;;;9.09;82.85;102329.06;5092307;28;10540;-67
2022/11/30 02:45:28;;;;;;;;;15.25;14.50;;;;;9.12;83.34;102333.28;5089033;28;10519;-66
2022/11/30 02:48:06;;;;;;;;;15.00;14.25;;;;;9.12;83.11;102339.50;5091736;28;10373;-66
2022/11/30 02:50:39;;;;;;;;;13.25;12.00;;;;;9.13;82.65;102337.66;5091304;28;10589;-66
2022/11/30 02:53:08;;;;;;;;;12.00;12.00;;;;;9.12;83.01;102339.50;5084281;28;11138;-67
2022/11/30 02:55:35;;;;;;;;;12.75;12.75;;;;;9.12;82.63;102335.97;5091799;28;10496;-66
2022/11/30 02:58:02;;;;;;;;;19.50;14.00;;;;;9.08;82.97;102326.53;5092320;28;10361;-66
2022/11/30 03:00:28;;;;;;;;;17.75;15.25;;;;;9.09;83.11;102334.44;5087088;28;10484;-67
2022/11/30 03:02:55;;;;;;;;;15.00;14.75;;;;;9.08;82.97;102334.59;5090434;28;10433;-66
2022/11/30 03:05:21;;;;;;;;;18.00;12.75;;;;;9.08;82.86;102338.13;5094027;28;10601;-63
2022/11/30 03:07:48;;;;;;;;;12.75;11.50;;;;;9.09;83.18;102336.28;5089722;28;10368;-67
2022/11/30 03:10:15;;;;;;;;;16.50;13.00;;;;;9.09;82.52;102347.00;5091883;28;10285;-67
2022/11/30 03:12:41;;;;;;;;;19.25;17.00;;;;;8.99;82.67;102338.13;5090576;28;10663;-65
2022/11/30 03:15:08;;;;;;;;;20.50;17.75;;;;;8.97;83.01;102337.44;5091923;28;10457;-65
2022/11/30 03:17:34;;;;;;;;;20.50;14.00;;;;;8.97;83.20;102345.50;5092430;28;10475;-65
2022/11/30 03:20:00;;;;;;;;;15.00;13.25;;;;;8.98;83.15;102347.19;5087255;28;10474;-65
2022/11/30 03:22:27;;;;;;;;;17.50;16.00;;;;;8.98;83.02;102347.19;5072067;28;10413;-64
2022/11/30 03:24:54;;;;;;;;;15.75;14.50;;;;;8.97;83.19;102342.81;5075812;28;10704;-64
2022/11/30 03:27:21;;;;;;;;;20.00;17.25;;;;;8.90;82.35;102340.72;5092454;28;10606;-64
2022/11/30 03:29:48;;;;;;;;;24.25;14.00;;;;;8.87;83.07;102343.72;5091254;28;10832;-64
2022/11/30 03:32:14;;;;;;;;;17.00;10.25;;;;;8.87;83.09;102343.72;5090024;28;10749;-65
2022/11/30 03:34:40;;;;;;;;;22.50;19.00;;;;;8.88;82.89;102342.72;5091697;28;10680;-65
2022/11/30 03:37:07;;;;;;;;;20.25;17.50;;;;;8.89;82.96;102339.03;5092199;28;10512;-65
2022/11/30 03:39:33;;;;;;;;;23.25;20.50;;;;;8.88;82.71;102340.03;5091496;28;10683;-64
2022/11/30 03:42:00;;;;;;;;;19.25;18.25;;;;;8.86;83.04;102339.31;5092278;28;10555;-66
2022/11/30 03:44:26;;;;;;;;;19.25;15.25;;;;;8.82;82.95;102337.91;5090501;28;10697;-65
2022/11/30 03:46:53;;;;;;;;;15.00;14.25;;;;;8.82;82.75;102343.28;5091645;28;10618;-66
2022/11/30 03:49:19;;;;;;;;;15.50;13.50;;;;;8.81;82.97;102335.38;5096901;28;10672;-66
2022/11/30 03:51:46;;;;;;;;;15.50;14.00;;;;;8.81;82.98;102333.53;5079487;28;10614;-66
2022/11/30 03:54:12;;;;;;;;;15.75;15.00;;;;;8.80;83.16;102331.84;5098561;28;10660;-66
2022/11/30 03:56:39;;;;;;;;;16.50;16.50;;;;;8.78;82.69;102328.44;5091384;28;10598;-65
2022/11/30 03:59:22;;;;;;;;;20.25;18.25;;;;;8.78;82.85;102347.25;5089215;28;10492;-64
2022/11/30 04:01:49;;;;;;;;;14.50;14.50;;;;;8.77;83.22;102358.97;5089153;28;10601;-65
2022/11/30 04:04:15;;;;;;;;;15.50;14.50;;;;;8.81;83.17;102359.53;5091351;28;10501;-66
2022/11/30 04:06:42;;;;;;;;;20.50;16.25;;;;;8.81;83.00;102359.53;5090403;28;10455;-66
2022/11/30 04:09:09;;;;;;;;;27.00;24.00;;;;;8.76;82.71;102345.72;5089855;28;10389;-66
2022/11/30 04:11:35;;;;;;;;;29.00;22.25;;;;;8.69;82.84;102350.81;5090446;28;10982;-64
2022/11/30 04:14:01;;;;;;;;;24.25;21.50;;;;;8.72;83.60;102355.91;5089894;28;11503;-63
2022/11/30 04:16:28;;;;;;;;;23.25;18.50;;;;;8.73;83.39;102356.75;5090872;28;10635;-66
2022/11/30 04:18:54;;;;;;;;;14.50;12.25;;;;;8.75;83.42;102357.44;5089272;28;10763;-66
2022/11/30 04:21:21;;;;;;;;;17.00;13.75;;;;;8.78;83.36;102367.88;5089628;28;10461;-66
2022/11/30 04:23:47;;;;;;;;;23.00;14.75;;;;;8.79;83.27;102367.75;5090501;28;10580;-64
2022/11/30 04:26:15;;;;;;;;;16.25;14.00;;;;;8.80;82.87;102365.91;5087835;28;10570;-65
2022/11/30 04:28:42;;;;;;;;;25.75;19.00;;;;;8.79;83.07;102367.75;5090116;28;10692;-65
2022/11/30 04:31:09;;;;;;;;;19.75;19.75;;;;;8.77;83.24;102364.34;5090267;28;10546;-63
2022/11/30 04:33:36;;;;;;;;;14.50;14.50;;;;;8.76;83.09;102359.13;5085579;28;10765;-64
2022/11/30 04:36:04;;;;;;;;;25.75;22.75;;;;;8.72;83.15;102365.78;5090574;28;10597;-65
2022/11/30 04:38:32;;;;;;;;;24.75;18.00;;;;;8.69;83.38;102361.53;5090940;28;10697;-65
2022/11/30 04:40:59;;;;;;;;;21.75;16.00;;;;;8.70;82.99;102362.38;5090535;28;10688;-66
2022/11/30 04:43:25;;;;;;;;;29.25;24.25;;;;;8.69;83.44;102356.19;5090280;28;11373;-65
2022/11/30 04:45:52;;;;;;;;;21.75;17.00;;;;;8.68;82.90;102354.50;5088834;28;10880;-65
2022/11/30 04:48:19;;;;;;;;;18.00;18.00;;;;;8.68;83.61;102359.03;5090575;28;10617;-66
2022/11/30 04:50:45;;;;;;;;;20.50;16.75;;;;;8.68;83.42;102359.03;5090481;28;10674;-66
2022/11/30 04:53:12;;;;;;;;;21.75;19.75;;;;;8.66;83.75;102365.34;5089001;28;10648;-66
2022/11/30 04:55:38;;;;;;;;;25.75;19.75;;;;;8.68;84.10;102367.91;5090491;28;11409;-64
2022/11/30 04:58:05;;;;;;;;;24.50;17.50;;;;;8.69;83.82;102358.03;5091058;28;10707;-66
2022/11/30 05:00:32;;;;;;;;;20.00;17.25;;;;;8.69;83.80;102368.75;5090623;28;10910;-66
2022/11/30 05:02:58;;;;;;;;;19.00;16.25;;;;;8.69;83.44;102364.22;5093221;28;10623;-65
2022/11/30 05:05:25;;;;;;;;;12.50;12.50;;;;;8.70;83.34;102367.75;5086027;28;11225;-66
2022/11/30 05:07:58;;;;;;;;;15.25;15.00;;;;;8.72;83.77;102371.16;5089152;28;11290;-66
2022/11/30 05:10:27;;;;;;;;;14.75;13.50;;;;;8.75;83.47;102374.41;5092349;28;10658;-66
2022/11/30 05:12:53;;;;;;;;;18.00;14.00;;;;;8.74;83.74;102379.91;5089664;28;10606;-65
2022/11/30 05:15:20;;;;;;;;;21.25;17.00;;;;;8.74;83.53;102383.44;5088541;28;10650;-66
2022/11/30 05:17:46;;;;;;;;;24.50;14.00;;;;;8.74;83.56;102385.28;5091192;28;11346;-66
2022/11/30 05:20:13;;;;;;;;;21.50;17.50;;;;;8.73;83.07;102383.59;5089474;28;11172;-64
2022/11/30 05:22:39;;;;;;;;;18.50;14.50;;;;;8.71;83.30;102383.75;5087387;28;10739;-64
2022/11/30 05:25:06;;;;;;;;;20.00;16.75;;;;;8.73;83.56;102386.28;5087468;28;10641;-65
2022/11/30 05:27:34;;;;;;;;;19.00;17.25;;;;;8.72;83.49;102381.91;5088468;28;11488;-65
2022/11/30 05:30:00;;;;;;;;;20.25;16.25;;;;;8.73;83.53;102388.94;5089476;28;10618;-66
2022/11/30 05:32:27;;;;;;;;;15.25;14.75;;;;;8.73;83.33;102387.13;5089345;28;10568;-65
2022/11/30 05:34:53;;;;;;;;;17.75;13.25;;;;;8.71;83.45;102386.44;5089377;28;10619;-64
2022/11/30 05:37:20;;;;;;;;;26.25;17.00;;;;;8.71;83.42;102386.44;5100354;28;10542;-65
2022/11/30 05:39:46;;;;;;;;;20.50;16.50;;;;;8.71;83.44;102386.44;5089878;28;10548;-64
2022/11/30 05:42:13;;;;;;;;;14.25;14.25;;;;;8.70;83.00;102389.25;5089998;28;10521;-65
2022/11/30 05:44:39;;;;;;;;;20.50;18.00;;;;;8.68;83.10;102392.06;5088249;28;10469;-64
2022/11/30 05:47:06;;;;;;;;;26.50;18.50;;;;;8.67;83.04;102390.38;5089900;28;10637;-65
2022/11/30 05:49:32;;;;;;;;;24.00;21.00;;;;;8.66;83.00;102394.88;5089973;28;10776;-65
2022/11/30 05:51:58;;;;;;;;;25.50;21.50;;;;;8.63;83.19;102391.66;5088556;28;10715;-65
2022/11/30 05:54:25;;;;;;;;;14.50;14.00;;;;;8.63;83.40;102397.88;5087124;28;10774;-67
2022/11/30 05:56:51;;;;;;;;;19.00;17.25;;;;;8.65;83.28;102401.25;5096401;28;10446;-66
2022/11/30 05:59:21;;;;;;;;;25.00;19.25;;;;;8.64;83.50;102393.34;5097022;28;10741;-66
2022/11/30 06:01:50;;;;;;;;;18.50;18.50;;;;;8.64;83.59;102396.88;5089548;28;10702;-66
2022/11/30 06:04:16;;;;;;;;;21.00;18.50;;;;;8.64;83.62;102399.56;5093716;28;10569;-65
2022/11/30 06:06:43;;;;;;;;;24.75;22.00;;;;;8.65;83.30;102403.09;5093380;28;10690;-65
2022/11/30 06:09:09;;;;;;;;;24.25;21.00;;;;;8.64;83.35;102404.09;5093463;28;10695;-66
2022/11/30 06:11:35;;;;;;;;;25.25;18.00;;;;;8.63;83.64;102405.94;5093699;28;10689;-66
2022/11/30 06:14:02;;;;;;;;;22.50;19.00;;;;;8.64;83.39;102396.88;5109159;28;10551;-64
2022/11/30 06:16:29;;;;;;;;;19.00;15.50;;;;;8.65;83.55;102403.94;5093391;28;10771;-65
2022/11/30 06:18:55;;;;;;;;;21.00;18.75;;;;;8.66;83.23;102404.78;5093784;28;10714;-66
2022/11/30 06:21:22;;;;;;;;;20.50;15.00;;;;;8.65;83.42;102401.25;5091658;28;10684;-64
2022/11/30 06:23:51;;;;;;;;;22.00;17.75;;;;;8.68;83.31;102402.81;5093467;28;10715;-65
2022/11/30 06:26:18;;;;;;;;;21.00;21.00;;;;;8.68;83.62;102404.66;5092143;28;10532;-65
2022/11/30 06:28:44;;;;;;;;;21.50;17.75;;;;;8.67;83.13;102406.50;5093408;28;10687;-65
2022/11/30 06:31:15;;;;;;;;;16.50;16.50;;;;;8.68;83.28;102407.34;5092574;28;10602;-66
2022/11/30 06:33:42;;;;;;;;;14.75;13.00;;;;;8.69;83.71;102409.88;5086404;28;10605;-66
2022/11/30 06:36:09;;;;;;;;;18.75;16.00;;;;;8.72;83.73;102414.13;5091208;28;10639;-66
2022/11/30 06:38:36;;;;;;;;;18.00;16.25;;;;;8.72;83.52;102409.59;5091402;28;10534;-66
2022/11/30 06:41:04;;;;;;;;;19.00;16.75;;;;;8.72;83.51;102409.59;5091101;28;10840;-67
2022/11/30 06:43:35;;;;;;;;;17.50;12.75;;;;;8.71;83.06;102415.97;5092638;28;10576;-63
2022/11/30 06:46:03;;;;;;;;;18.00;17.75;;;;;8.68;83.13;102416.22;5092593;28;10693;-65
2022/11/30 06:48:30;;;;;;;;;18.25;18.25;;;;;8.70;83.34;102414.25;5086829;28;10665;-65
2022/11/30 06:50:57;;;;;;;;;17.50;17.25;;;;;8.70;83.63;102410.72;5088652;28;10615;-65
2022/11/30 06:53:24;;;;;;;;;16.50;16.00;;;;;8.70;83.06;102413.41;5087931;28;10656;-65
2022/11/30 06:55:51;;;;;;;;;19.00;19.00;;;;;8.66;83.02;102421.72;5091957;28;11449;-65
2022/11/30 06:58:17;;;;;;;;;18.50;18.00;;;;;8.65;83.54;102421.88;5090067;28;10703;-67
2022/11/30 07:00:44;;;;;;;;;19.00;16.25;;;;;8.63;83.34;102426.56;5090177;28;11407;-66
2022/11/30 07:03:11;;;;;;;;;24.00;18.00;;;;;8.61;83.34;102417.78;5090315;28;10690;-66
2022/11/30 07:05:43;;;;;;;;;20.75;20.75;;;;;8.56;83.27;102422.75;5090725;28;10745;-65
2022/11/30 07:08:11;;;;;;;;;25.75;21.25;;;;;8.53;83.37;102423.03;5089916;28;10645;-66
2022/11/30 07:10:45;;;;;;;;;25.50;21.75;;;;;8.50;83.02;102423.28;5092183;28;10864;-66
2022/11/30 07:13:13;;;;;;;;;20.75;20.25;;;;;8.46;82.83;102422.72;5073987;28;10787;-66
2022/11/30 07:15:41;;;;;;;;;18.25;18.25;;;;;8.44;83.07;102426.56;5076708;28;10842;-65
2022/11/30 07:18:08;;;;;;;;;24.25;19.50;;;;;8.42;83.68;102429.38;5091647;28;10831;-66
2022/11/30 07:20:35;;;;;;;;;28.00;18.50;;;;;8.41;83.44;102436.56;5092207;28;10786;-65
2022/11/30 07:26:08;;;;;;;;;20.75;18.50;;;;;8.40;83.62;102436.72;5092211;28;10968;-66
2022/11/30 07:28:43;;;;;;;;;24.50;22.00;;;;;8.41;83.78;102439.25;5080200;28;10765;-66
2022/11/30 07:31:13;;;;;;;;;23.00;22.50;;;;;8.41;83.37;102444.63;5092232;28;10786;-65
2022/11/30 07:33:42;;;;;;;;;22.75;19.00;;;;;8.40;83.38;102448.31;5092003;28;10781;-66
2022/11/30 07:36:10;;;;;;;;;20.25;17.75;;;;;8.40;83.45;102453.69;5091403;28;10837;-66
2022/11/30 07:38:37;;;;;;;;;21.75;20.25;;;;;8.42;83.27;102456.19;5082549;28;10767;-65
2022/11/30 07:41:04;;;;;;;;;19.25;17.75;;;;;8.45;83.36;102460.47;5079110;28;10909;-67
2022/11/30 07:43:30;;;;;;;;;19.50;15.75;;;;;8.44;83.73;102458.75;5083706;28;10828;-66
2022/11/30 07:45:57;;;;;;;;;17.50;17.50;;;;;8.45;83.59;102460.47;5079860;28;10761;-64
2022/11/30 07:48:24;;;;;;;;;19.75;18.25;;;;;8.48;84.08;102460.19;5074468;28;10742;-64
2022/11/30 07:50:50;;;;;;;;;17.75;17.25;;;;;8.49;83.71;102456.50;5071420;28;11424;-66
2022/11/30 07:53:17;;;;;;;;;18.25;15.50;;;;;8.53;83.95;102461.44;5071508;28;10631;-65
2022/11/30 07:55:43;;;;;;;;;20.50;16.50;;;;;8.55;83.77;102464.00;5071369;28;10807;-66
2022/11/30 07:58:10;;;;;;;;;23.25;18.00;;;;;8.54;83.68;102465.81;5088393;28;10676;-66
2022/11/30 08:00:42;;;;;;;;;23.25;20.75;;;;;8.55;83.29;102474.75;5091623;28;10931;-65
2022/11/30 08:03:09;;;;;;;;;26.50;24.25;;;;;8.54;83.78;102473.03;5091513;28;10856;-66
2022/11/30 08:05:35;;;;;;;;;25.50;23.75;;;;;8.54;83.51;102479.22;5090917;28;10794;-65
2022/11/30 08:08:02;;;;;;;;;22.25;22.25;;;;;8.53;83.65;102480.22;5091037;28;10802;-66
2022/11/30 08:10:28;;;;;;;;;30.50;29.75;;;;;8.53;83.48;102479.38;5086875;28;11027;-65
2022/11/30 08:12:55;;;;;;;;;28.50;26.00;;;;;8.54;83.60;102479.22;5071313;28;10946;-66
2022/11/30 08:15:21;;;;;;;;;36.25;30.00;;;;;8.55;83.79;102489.00;5070934;28;10873;-67
2022/11/30 08:17:54;;;;;;;;;34.50;28.75;;;;;8.59;83.66;102492.25;5070304;28;10961;-66
2022/11/30 08:20:21;;;;;;;;;30.00;22.25;;;;;8.61;83.30;102492.94;5071010;28;10956;-66
2022/11/30 08:22:48;;;;;;;;;22.25;20.75;;;;;8.63;83.99;102496.34;5070897;28;10725;-66
2022/11/30 08:25:14;;;;;;;;;28.25;28.00;;;;;8.64;83.46;102495.34;5081797;28;11039;-65
2022/11/30 08:27:41;;;;;;;;;34.50;27.00;;;;;8.65;83.37;102497.06;5090166;28;10995;-66
2022/11/30 08:30:08;;;;;;;;;40.00;31.50;;;;;8.67;83.60;102495.09;5090896;28;10869;-66
2022/11/30 08:32:34;;;;;;;;;28.00;26.25;;;;;8.69;83.80;102494.94;5090928;28;10966;-65
2022/11/30 08:35:00;;;;;;;;;33.50;29.25;;;;;8.72;83.33;102497.34;5090775;28;11570;-65
2022/11/30 08:37:27;;;;;;;;;27.00;23.00;;;;;8.74;84.08;102500.72;5090899;28;11055;-65
2022/11/30 08:39:53;;;;;;;;;30.00;24.75;;;;;8.77;83.94;102497.75;5090326;28;10793;-65
2022/11/30 08:42:20;;;;;;;;;35.25;28.25;;;;;8.81;84.08;102507.22;5077359;28;10807;-66
2022/11/30 08:44:46;;;;;;;;;25.25;21.25;;;;;8.83;83.73;102506.09;5070082;28;10749;-66
2022/11/30 08:47:13;;;;;;;;;28.75;24.00;;;;;8.87;83.29;102510.19;5070265;28;10545;-65
2022/11/30 08:49:39;;;;;;;;;31.50;23.00;;;;;8.90;83.83;102517.94;5076444;28;10640;-65
2022/11/30 08:52:06;;;;;;;;;18.75;18.00;;;;;8.91;83.17;102522.34;5090511;28;10700;-66
2022/11/30 08:54:48;;;;;;;;;28.75;18.00;;;;;8.94;83.43;102523.03;5090064;28;10725;-66
2022/11/30 08:57:17;;;;;;;;;28.25;19.25;;;;;8.94;82.85;102525.72;5090492;28;11353;-65
2022/11/30 08:59:44;;;;;;;;;28.75;21.75;;;;;8.98;83.33;102529.81;5090072;28;10728;-66
2022/11/30 09:02:15;;;;;;;;;24.75;20.75;;;;;9.00;83.24;102533.25;5090293;28;10453;-64
2022/11/30 09:04:42;;;;;;;;;26.25;23.25;;;;;9.01;83.36;102526.88;5075950;28;10620;-65
2022/11/30 09:07:08;;;;;;;;;29.75;27.25;;;;;9.03;83.05;102530.25;5075182;28;10883;-66
2022/11/30 09:09:36;;;;;;;;;26.25;25.00;;;;;9.05;83.23;102528.28;5079702;28;10841;-66
2022/11/30 09:12:02;;;;;;;;;36.50;30.50;;;;;9.07;83.05;102534.34;5080596;28;10721;-66
2022/11/30 09:14:29;;;;;;;;;27.50;27.25;;;;;9.10;82.77;102536.75;5079420;28;11045;-66
2022/11/30 09:16:55;;;;;;;;;25.25;22.25;;;;;9.11;82.89;102539.28;5078853;28;11682;-66
2022/11/30 09:19:22;;;;;;;;;21.25;20.25;;;;;9.12;82.35;102543.69;5080377;28;10752;-65
2022/11/30 09:21:48;;;;;;;;;28.50;25.25;;;;;9.11;82.91;102550.03;5080033;28;10698;-66
2022/11/30 09:24:18;;;;;;;;;27.50;22.50;;;;;9.12;82.47;102549.06;5078252;28;11646;-65
2022/11/30 09:26:44;;;;;;;;;33.25;22.50;;;;;9.14;82.23;102548.91;5080551;28;10827;-65
2022/11/30 09:29:10;;;;;;;;;27.25;24.75;;;;;9.18;82.66;102544.09;5081202;28;10710;-66
2022/11/30 09:31:37;;;;;;;;;27.75;23.50;;;;;9.20;82.51;102551.03;5082475;28;11017;-66
2022/11/30 09:34:03;;;;;;;;;29.50;21.50;;;;;9.20;81.82;102552.88;5084219;28;10657;-66
2022/11/30 09:36:31;;;;;;;;;30.25;21.75;;;;;9.20;81.97;102548.34;5082533;28;10634;-64
2022/11/30 09:38:58;;;;;;;;;26.25;22.75;;;;;9.17;82.10;102554.00;5082231;28;10699;-66
2022/11/30 09:41:27;;;;;;;;;26.75;24.50;;;;;9.18;81.99;102554.84;5085034;28;10705;-65
2022/11/30 09:44:24;;;;;;;;;25.25;20.50;;;;;9.18;81.46;102552.16;5082800;28;10794;-66
2022/11/30 09:47:02;;;;;;;;;24.00;20.50;;;;;9.16;81.68;102558.53;5082422;28;10657;-65
2022/11/30 09:49:33;;;;;;;;;22.25;21.75;;;;;9.14;82.13;102555.13;5076043;28;10644;-66
2022/11/30 09:52:03;;;;;;;;;23.50;21.00;;;;;9.16;81.56;102555.00;5076829;28;10616;-65
2022/11/30 09:54:38;;;;;;;;;17.50;16.50;;;;;9.17;81.54;102562.06;5088969;28;10693;-67
2022/11/30 09:57:24;;;;;;;;;24.00;20.50;;;;;9.15;81.38;102554.16;5093554;28;10542;-64
2022/11/30 09:59:56;;;;;;;;;21.50;18.50;;;;;9.18;81.25;102561.06;5093012;28;10632;-67
2022/11/30 10:02:32;;;;;;;;;25.50;21.75;;;;;9.18;81.31;102560.22;5093718;28;10748;-66
2022/11/30 10:05:00;;;;;;;;;26.00;20.00;;;;;9.18;81.51;102560.22;5087618;28;10636;-64
2022/11/30 10:07:58;;;;;;;;;22.75;19.50;;;;;9.19;81.69;102559.22;5073045;28;10634;-65
2022/11/30 10:10:39;;;;;;;;;24.50;20.25;;;;;9.19;80.88;102561.91;5082705;28;10789;-64
2022/11/30 10:13:33;;;;;;;;;23.50;21.00;;;;;9.16;81.27;102558.53;5093589;28;10596;-65
2022/11/30 10:16:05;;;;;;;;;24.50;23.25;;;;;9.15;80.94;102558.66;5086896;28;11417;-67
2022/11/30 10:18:52;;;;;;;;;24.00;21.75;;;;;9.13;81.18;102549.91;5092818;28;10728;-65
2022/11/30 10:21:45;;;;;;;;;25.50;23.25;;;;;9.11;80.87;102554.56;5092853;28;11393;-65
2022/11/30 10:24:43;;;;;;;;;26.50;19.00;;;;;9.11;81.57;102558.09;5075494;28;10718;-65
2022/11/30 10:27:16;;;;;;;;;23.75;20.75;;;;;9.13;80.62;102556.13;5072697;28;10830;-66
2022/11/30 10:29:43;;;;;;;;;20.50;19.00;;;;;9.13;81.50;102553.44;5089725;28;10852;-66
2022/11/30 10:32:21;;;;;;;;;27.25;24.00;;;;;9.12;81.19;102548.22;5092981;28;10649;-67
2022/11/30 10:34:52;;;;;;;;;26.00;22.25;;;;;9.08;80.82;102553.03;5092543;28;10803;-65
2022/11/30 10:37:34;;;;;;;;;22.25;20.25;;;;;9.10;81.49;102552.88;5093134;28;10529;-67
2022/11/30 10:40:14;;;;;;;;;22.25;21.25;;;;;9.08;80.75;102547.66;5083487;28;10718;-66
2022/11/30 10:42:49;;;;;;;;;28.00;22.75;;;;;9.09;81.24;102543.13;5071673;28;10702;-65
2022/11/30 10:45:19;;;;;;;;;21.00;21.00;;;;;9.08;80.28;102547.66;5080603;28;10869;-67
2022/11/30 10:47:58;;;;;;;;;21.75;18.00;;;;;9.34;82.95;102549.72;5093095;28;10679;-66
2022/11/30 10:50:28;;;;;;;;;22.00;20.00;;;;;9.37;81.14;102552.13;5093095;28;10516;-65
2022/11/30 10:52:57;;;;;;;;;25.25;21.25;;;;;9.32;80.71;102544.50;5092930;28;10599;-68
2022/11/30 10:55:28;;;;;;;;;29.00;23.25;;;;;9.32;80.30;102546.34;5081231;28;10652;-65
2022/11/30 10:58:02;;;;;;;;;23.75;21.50;;;;;9.33;80.46;102542.66;5090366;28;11117;-65
2022/11/30 11:00:29;;;;;;;;;39.25;29.50;;;;;9.24;79.12;102557.81;5092475;28;10627;-66
2022/11/30 11:02:55;;;;;;;;;35.75;32.75;;;;;9.12;79.25;102554.44;5092978;28;10796;-65
2022/11/30 11:05:25;;;;;;;;;31.25;30.25;;;;;9.10;80.01;102552.88;5092124;28;10961;-67
2022/11/30 11:07:58;;;;;;;;;29.00;25.50;;;;;9.11;79.67;102554.56;5092322;28;10691;-65
2022/11/30 11:10:50;;;;;;;;;30.25;27.25;;;;;9.05;79.48;102555.13;5091025;28;10785;-65
2022/11/30 11:13:34;;;;;;;;;30.00;27.00;;;;;8.99;80.82;102553.00;5072396;28;10845;-66
2022/11/30 11:16:01;;;;;;;;;36.25;28.00;;;;;9.03;80.96;102547.19;5085891;28;10813;-67
2022/11/30 11:18:32;;;;;;;;;38.00;30.25;;;;;9.08;80.61;102544.97;5092078;28;10957;-67
2022/11/30 11:21:21;;;;;;;;;35.75;34.00;;;;;8.96;80.26;102540.72;5091996;28;10956;-66
2022/11/30 11:23:52;;;;;;;;;37.00;36.75;;;;;8.85;79.95;102546.22;5092292;28;10869;-67
2022/11/30 11:26:19;;;;;;;;;37.75;34.75;;;;;8.80;80.59;102546.66;5091571;28;11134;-67
2022/11/30 11:28:51;;;;;;;;;43.50;38.25;;;;;8.66;80.00;102545.22;5091922;28;11034;-67
2022/11/30 11:31:28;;;;;;;;;34.50;32.00;;;;;8.63;81.68;102550.03;5092072;28;11228;-66